Time;durP1;ratioP1;P1;durP2;ratioP2;P2;SDS_P1;SDS_P2;PMS_P1;PMS_P2;Temp;Humidity;BMP_temperature;BMP_pressure;BME280_temperature;BME280_humidity;BME280_pressure;Samples;Min_cycle;Max_cycle;Signal;HPM_P1;HPM_P2
2023/02/13 00:01:08;;;;;;;23.73;13.47;;;8.90;1.00;;;;;;6254045;22;20248;-81
2023/02/13 00:03:34;;;;;;;22.10;13.77;;;8.90;1.00;;;;;;6256109;22;20912;-81
2023/02/13 00:06:01;;;;;;;20.90;13.23;;;8.90;1.00;;;;;;6253386;22;20525;-81
2023/02/13 00:08:28;;;;;;;20.47;12.63;;;8.90;1.00;;;;;;6253789;22;20392;-80
2023/02/13 00:10:56;;;;;;;21.33;14.17;;;8.90;1.00;;;;;;6254918;22;20983;-81
2023/02/13 00:13:23;;;;;;;22.43;13.03;;;8.90;1.00;;;;;;6255847;22;20950;-82
2023/02/13 00:16:08;;;;;;;20.10;13.23;;;8.80;1.00;;;;;;6254044;22;21194;-81
2023/02/13 00:18:39;;;;;;;20.70;13.30;;;8.80;1.00;;;;;;6255801;22;20221;-80
2023/02/13 00:21:12;;;;;;;20.70;12.25;;;8.80;1.00;;;;;;6254455;22;20223;-81
2023/02/13 00:23:43;;;;;;;20.83;12.47;;;8.70;1.00;;;;;;6255300;22;20737;-83
2023/02/13 00:26:15;;;;;;;16.80;11.30;;;8.70;1.00;;;;;;6254658;22;20442;-82
2023/02/13 00:28:46;;;;;;;18.98;10.60;;;8.70;1.00;;;;;;6254280;22;20416;-82
2023/02/13 00:31:16;;;;;;;15.27;10.10;;;8.70;1.00;;;;;;6254381;22;20235;-81
2023/02/13 00:39:02;;;;;;;13.63;8.80;;;8.80;1.00;;;;;;6193701;23;20417;-82
2023/02/13 00:41:30;;;;;;;17.00;10.00;;;8.70;1.00;;;;;;6195948;23;20476;-82
2023/02/13 00:43:57;;;;;;;15.80;9.00;;;8.70;1.00;;;;;;6191804;23;20217;-81
2023/02/13 00:46:33;;;;;;;13.47;8.40;;;8.70;1.00;;;;;;6201644;23;20910;-83
2023/02/13 00:49:00;;;;;;;15.02;8.63;;;8.80;1.00;;;;;;6205018;23;20404;-79
2023/02/13 00:51:30;;;;;;;11.47;7.97;;;8.70;1.00;;;;;;6191624;23;20228;-81
2023/02/13 00:54:00;;;;;;;11.97;6.97;;;8.80;1.00;;;;;;6190971;23;20391;-81
2023/02/13 00:56:30;;;;;;;10.07;5.60;;;8.70;1.00;;;;;;6206068;23;20465;-82
2023/02/13 00:59:03;;;;;;;10.35;6.38;;;8.60;1.00;;;;;;6203932;23;20392;-82
2023/02/13 01:01:35;;;;;;;9.93;5.40;;;8.60;1.00;;;;;;6206413;23;20261;-82
2023/02/13 01:04:03;;;;;;;9.23;5.17;;;8.60;1.00;;;;;;6202594;23;20421;-81
2023/02/13 01:06:30;;;;;;;9.60;5.80;;;8.60;1.00;;;;;;6204821;23;20382;-80
2023/02/13 01:09:01;;;;;;;10.07;5.97;;;8.60;1.00;;;;;;6203404;23;20445;-81
2023/02/13 01:11:38;;;;;;;10.75;5.40;;;8.60;1.00;;;;;;6202547;23;20217;-80
2023/02/13 01:14:10;;;;;;;8.80;4.30;;;8.60;1.00;;;;;;6190248;23;20208;-81
2023/02/13 01:16:43;;;;;;;8.40;4.40;;;8.60;1.00;;;;;;6204397;23;20433;-82
2023/02/13 01:19:11;;;;;;;6.90;4.67;;;8.60;1.00;;;;;;6234471;23;20393;-82
2023/02/13 01:21:41;;;;;;;7.33;4.43;;;8.60;1.00;;;;;;6235224;23;20419;-81
2023/02/13 01:24:13;;;;;;;6.53;4.25;;;8.60;1.00;;;;;;6231417;23;20432;-80
2023/02/13 01:26:40;;;;;;;7.75;3.15;;;8.60;1.00;;;;;;6237368;23;20228;-81
2023/02/13 01:29:11;;;;;;;5.57;3.40;;;8.60;1.00;;;;;;6235878;23;20213;-81
2023/02/13 01:31:41;;;;;;;6.88;3.58;;;8.60;1.00;;;;;;6238285;23;20216;-82
2023/02/13 01:34:11;;;;;;;8.02;3.47;;;8.60;1.00;;;;;;6232262;23;20189;-80
2023/02/13 01:36:42;;;;;;;5.47;3.00;;;8.60;1.00;;;;;;6207098;23;20197;-83
2023/02/13 01:39:13;;;;;;;7.47;3.30;;;8.60;1.00;;;;;;6205401;23;20214;-81
2023/02/13 01:41:41;;;;;;;7.60;4.27;;;8.60;1.00;;;;;;6207002;23;20296;-80
2023/02/13 01:44:40;;;;;;;7.38;3.67;;;8.60;1.00;;;;;;6205785;23;20416;-82
2023/02/13 01:47:20;;;;;;;6.90;3.50;;;8.60;1.00;;;;;;6172963;23;20223;-83
2023/02/13 01:49:51;;;;;;;5.35;3.50;;;8.60;1.00;;;;;;6206667;23;20217;-84
2023/02/13 01:52:20;;;;;;;6.37;3.60;;;8.60;1.00;;;;;;6204537;23;20194;-80
2023/02/13 01:54:49;;;;;;;6.67;3.07;;;8.60;1.00;;;;;;6203888;23;20390;-82
2023/02/13 01:57:32;;;;;;;5.57;3.33;;;8.60;1.00;;;;;;6206583;23;20401;-81
2023/02/13 02:00:12;;;;;;;6.20;3.13;;;8.60;1.00;;;;;;6206153;22;20394;-81
2023/02/13 02:03:00;;;;;;;5.70;3.20;;;8.60;1.00;;;;;;6200972;23;20291;-82
2023/02/13 02:05:32;;;;;;;6.80;3.30;;;8.60;1.00;;;;;;6204692;23;20390;-83
2023/02/13 02:08:09;;;;;;;5.83;3.60;;;8.60;1.00;;;;;;6207278;23;20386;-81
2023/02/13 02:14:22;;;;;;;4.87;3.10;;;8.50;1.00;;;;;;6204450;23;20214;-79
2023/02/13 02:16:53;;;;;;;6.80;3.50;;;8.50;1.00;;;;;;6205081;23;20393;-83
2023/02/13 02:19:39;;;;;;;7.40;3.70;;;8.50;1.00;;;;;;6203312;23;20389;-81
2023/02/13 02:22:50;;;;;;;5.93;3.30;;;8.40;1.00;;;;;;6193673;23;20390;-82
2023/02/13 02:25:49;;;;;;;6.05;3.65;;;8.30;1.00;;;;;;6137909;23;21022;-80
2023/02/13 02:28:45;;;;;;;7.07;3.70;;;8.30;1.00;;;;;;6205258;23;20217;-81
2023/02/13 02:32:01;;;;;;;6.70;3.25;;;8.20;1.00;;;;;;6165653;23;20301;-81
2023/02/13 02:34:52;;;;;;;7.55;4.03;;;8.20;1.00;;;;;;6102395;23;20216;-81
2023/02/13 02:38:00;;;;;;;7.85;4.13;;;8.20;1.00;;;;;;6233731;23;20254;-79
2023/02/13 02:40:38;;;;;;;7.30;3.70;;;8.20;1.00;;;;;;6235657;23;20214;-81
2023/02/13 02:43:23;;;;;;;8.77;4.35;;;8.20;1.00;;;;;;6233114;23;20216;-82
2023/02/13 02:45:57;;;;;;;6.68;3.63;;;8.20;1.00;;;;;;6229691;23;20694;-82
2023/02/13 02:51:40;;;;;;;5.68;3.88;;;8.30;1.00;;;;;;6235540;23;20208;-82
2023/02/13 03:06:09;;;;;;;7.35;4.18;;;8.20;1.00;;;;;;6236358;23;20316;-82
2023/02/13 03:06:10;;;;;;;8.93;4.85;;;8.30;1.00;;;;;;6158786;23;20520;-81
2023/02/13 03:14:18;;;;;;;7.53;4.90;;;8.20;1.00;;;;;;6222831;23;20219;-82
2023/02/13 03:22:39;;;;;;;8.93;5.97;;;8.30;1.00;;;;;;6221278;23;20240;-81
2023/02/13 03:25:17;;;;;;;8.60;5.30;;;8.30;1.00;;;;;;6221702;23;20215;-83
2023/02/13 03:30:51;;;;;;;8.20;5.47;;;8.30;1.00;;;;;;6222978;23;20219;-81
2023/02/13 03:33:30;;;;;;;7.72;5.47;;;8.30;1.00;;;;;;6219643;23;20233;-82
2023/02/13 03:38:59;;;;;;;8.07;5.00;;;8.30;1.00;;;;;;6231381;23;20216;-81
2023/02/13 03:41:40;;;;;;;8.02;5.18;;;8.30;1.00;;;;;;6233002;23;20236;-80
2023/02/13 03:44:20;;;;;;;7.43;4.70;;;8.20;1.00;;;;;;6231232;23;20225;-80
2023/02/13 03:46:53;;;;;;;9.90;5.72;;;8.20;1.00;;;;;;6232606;23;20222;-80
2023/02/13 03:52:20;;;;;;;9.30;6.00;;;8.20;1.00;;;;;;6233492;23;20186;-81
2023/02/13 04:00:50;;;;;;;9.95;6.70;;;8.40;1.00;;;;;;6233727;23;20456;-80
2023/02/13 04:03:33;;;;;;;8.68;5.88;;;8.40;1.00;;;;;;6232306;23;20210;-83
2023/02/13 04:06:21;;;;;;;8.82;5.85;;;8.40;1.00;;;;;;6235477;23;20211;-83
2023/02/13 04:08:51;;;;;;;9.57;6.10;;;8.40;1.00;;;;;;6236659;23;20269;-81
2023/02/13 04:11:30;;;;;;;10.83;6.33;;;8.40;1.00;;;;;;6236287;23;20220;-80
2023/02/13 04:14:06;;;;;;;9.30;6.10;;;8.40;1.00;;;;;;6235118;23;20397;-81
2023/02/13 04:16:42;;;;;;;9.70;6.28;;;8.40;1.00;;;;;;6234499;23;20235;-80
2023/02/13 04:19:11;;;;;;;8.43;5.97;;;8.40;1.00;;;;;;6234459;23;20220;-83
2023/02/13 04:21:46;;;;;;;9.77;6.65;;;8.40;1.00;;;;;;6220103;22;20416;-81
2023/02/13 04:24:14;;;;;;;9.60;7.35;;;8.40;1.00;;;;;;6179021;23;20219;-84
2023/02/13 04:26:43;;;;;;;10.70;7.00;;;8.40;1.00;;;;;;6233969;23;20271;-82
2023/02/13 04:29:12;;;;;;;9.80;7.70;;;8.40;1.00;;;;;;6234594;23;20377;-80
2023/02/13 04:31:41;;;;;;;9.77;7.47;;;8.40;1.00;;;;;;6233729;23;20227;-83
2023/02/13 04:34:10;;;;;;;8.97;7.20;;;8.40;1.00;;;;;;6232770;23;20424;-81
2023/02/13 04:36:41;;;;;;;11.00;8.00;;;8.30;1.00;;;;;;6232572;23;20467;-81
2023/02/13 04:39:11;;;;;;;13.33;8.13;;;8.30;1.00;;;;;;6232104;23;20931;-80
2023/02/13 04:41:41;;;;;;;11.53;8.67;;;8.30;1.00;;;;;;6233741;23;20385;-82
2023/02/13 04:44:19;;;;;;;10.80;8.02;;;8.30;1.00;;;;;;6232339;23;20419;-81
2023/02/13 04:46:52;;;;;;;11.70;8.20;;;8.20;1.00;;;;;;6229994;23;20330;-82
2023/02/13 04:49:21;;;;;;;11.13;9.23;;;8.20;1.00;;;;;;6233411;23;20189;-82
2023/02/13 04:51:51;;;;;;;10.80;8.02;;;8.30;1.00;;;;;;6233049;23;20215;-82
2023/02/13 04:54:21;;;;;;;12.00;8.30;;;8.30;1.00;;;;;;6230524;23;20197;-82
2023/02/13 04:56:54;;;;;;;11.57;7.90;;;8.30;1.00;;;;;;6232901;23;20421;-82
2023/02/13 04:59:22;;;;;;;12.00;9.23;;;8.30;1.00;;;;;;6232645;23;20428;-81
2023/02/13 05:01:51;;;;;;;11.07;8.10;;;8.30;1.00;;;;;;6224357;23;20433;-81
2023/02/13 05:04:30;;;;;;;;;;;;;;;;;;;;;
2023/02/13 05:07:00;;;;;;;13.10;9.70;;;8.40;1.00;;;;;;6205597;23;40260;-82
2023/02/13 05:09:43;;;;;;;;;;;;;;;;;;;;;
2023/02/13 05:12:20;;;;;;;10.87;8.10;;;8.30;1.00;;;;;;6212596;23;50903;-81
2023/02/13 05:14:52;;;;;;;12.90;8.90;;;8.30;1.00;;;;;;6234177;23;20380;-81
2023/02/13 05:17:22;;;;;;;12.60;8.40;;;8.40;1.00;;;;;;6234542;23;20393;-81
2023/02/13 05:19:52;;;;;;;13.17;9.93;;;8.40;1.00;;;;;;6237209;23;20465;-80
2023/02/13 05:25:24;;;;;;;12.37;8.83;;;8.40;1.00;;;;;;6203239;23;20408;-80
2023/02/13 05:27:52;;;;;;;12.50;9.30;;;8.40;1.00;;;;;;6232259;23;20481;-78
2023/02/13 05:30:23;;;;;;;12.10;9.37;;;8.30;1.00;;;;;;6234750;23;20382;-81
2023/02/13 05:32:53;;;;;;;12.70;9.50;;;8.30;1.00;;;;;;6234181;23;20415;-80
2023/02/13 05:35:22;;;;;;;14.43;9.30;;;8.30;1.00;;;;;;6234440;23;20416;-80
2023/02/13 05:37:52;;;;;;;13.87;9.40;;;8.30;1.00;;;;;;6235038;23;20201;-79
2023/02/13 05:40:24;;;;;;;12.13;7.63;;;8.30;1.00;;;;;;6234182;23;20370;-82
2023/02/13 05:43:04;;;;;;;11.45;7.93;;;8.30;1.00;;;;;;6234441;23;20436;-82
2023/02/13 05:45:32;;;;;;;13.35;9.18;;;8.40;1.00;;;;;;6188499;23;20839;-82
2023/02/13 05:51:19;;;;;;;13.53;9.30;;;8.40;1.00;;;;;;6188538;22;20224;-82
2023/02/13 05:53:54;;;;;;;12.95;8.27;;;8.30;1.00;;;;;;6217574;23;20415;-82
2023/02/13 05:56:24;;;;;;;11.73;8.13;;;8.30;1.00;;;;;;6232564;23;20216;-83
2023/02/13 05:59:02;;;;;;;;;;;;;;;;;;;;;
2023/02/13 06:01:53;;;;;;;10.60;6.50;;;8.20;1.00;;;;;;6232101;23;39890;-80
2023/02/13 06:04:31;;;;;;;9.50;6.80;;;8.30;1.00;;;;;;6225055;23;20439;-79
2023/02/13 06:07:01;;;;;;;11.38;6.40;;;8.30;1.00;;;;;;6233726;23;20243;-81
2023/02/13 06:10:12;;;;;;;11.95;7.63;;;8.20;1.00;;;;;;6237081;23;20233;-87
2023/02/13 06:12:44;;;;;;;10.13;6.70;;;8.30;1.00;;;;;;6202994;23;20715;-80
2023/02/13 06:15:14;;;;;;;9.68;6.75;;;8.30;1.00;;;;;;6232764;22;20393;-81
2023/02/13 06:17:44;;;;;;;13.45;7.38;;;8.30;1.00;;;;;;6236186;23;20236;-84
2023/02/13 06:20:13;;;;;;;13.70;9.60;;;8.40;1.00;;;;;;6224596;23;20435;-83
2023/02/13 06:22:43;;;;;;;10.20;7.17;;;8.40;1.00;;;;;;6240443;22;20209;-83
2023/02/13 06:25:19;;;;;;;8.97;6.43;;;8.50;1.00;;;;;;6220119;23;20625;-81
2023/02/13 06:27:53;;;;;;;9.15;5.75;;;8.50;1.00;;;;;;6235873;22;20407;-82
2023/02/13 06:30:23;;;;;;;8.93;6.23;;;8.40;1.00;;;;;;6206282;23;20217;-82
2023/02/13 06:33:00;;;;;;;19.97;9.93;;;8.40;1.00;;;;;;6194045;23;20384;-81
2023/02/13 06:35:32;;;;;;;11.07;7.30;;;8.40;1.00;;;;;;6199084;23;20397;-82
2023/02/13 06:38:02;;;;;;;10.95;6.28;;;8.50;1.00;;;;;;6166561;23;20393;-82
2023/02/13 07:25:41;;;;;;;;;;;;;;;;;;;;;
2023/02/13 07:43:41;;;;;;;9.50;7.00;;;8.90;1.00;;;;;;5999679;23;20218;-82
2023/02/13 07:46:11;;;;;;;13.90;8.40;;;8.90;1.00;;;;;;6052067;23;20417;-81
2023/02/13 07:48:42;;;;;;;11.75;8.70;;;9.10;1.00;;;;;;6056818;23;20400;-81
2023/02/13 07:51:12;;;;;;;12.90;7.80;;;9.00;1.00;;;;;;6053672;23;20221;-81
2023/02/13 07:53:42;;;;;;;13.20;9.33;;;9.10;1.00;;;;;;6052701;23;20480;-86
2023/02/13 07:56:24;;;;;;;;;;;;;;;;;;;;;
2023/02/13 07:59:14;;;;;;;14.27;8.03;;;9.10;1.00;;;;;;6051112;23;39193;-82
2023/02/13 08:01:42;;;;;;;13.40;8.20;;;9.10;1.00;;;;;;6042857;23;20441;-82
2023/02/13 08:04:13;;;;;;;10.50;7.47;;;9.10;1.00;;;;;;6052244;23;20390;-82
2023/02/13 08:23:37;;;;;;;9.30;6.63;;;9.30;1.00;;;;;;5990185;23;20405;-81
2023/02/13 08:26:23;;;;;;;11.97;6.33;;;9.20;1.00;;;;;;5956561;24;20415;-85
2023/02/13 08:28:52;;;;;;;11.70;7.90;;;9.20;1.00;;;;;;5960128;23;20409;-84
2023/02/13 08:31:23;;;;;;;11.10;6.65;;;9.20;1.00;;;;;;5954742;24;20429;-81
2023/02/13 08:34:03;;;;;;;9.43;6.00;;;9.20;1.00;;;;;;5966303;23;20214;-79
2023/02/13 08:36:33;;;;;;;8.70;6.50;;;9.20;1.00;;;;;;5966034;23;20405;-81
2023/02/13 08:39:04;;;;;;;11.50;7.10;;;9.20;1.00;;;;;;5965654;24;20408;-80
2023/02/13 08:41:31;;;;;;;11.93;7.37;;;9.20;1.00;;;;;;6038497;23;20569;-79
2023/02/13 08:44:10;;;;;;;13.45;7.43;;;9.20;1.00;;;;;;6050979;23;20392;-82
2023/02/13 08:46:42;;;;;;;10.20;6.60;;;9.20;1.00;;;;;;6052660;23;20210;-81
2023/02/13 08:49:22;;;;;;;11.87;7.30;;;9.30;1.00;;;;;;6045842;23;20466;-83
2023/02/13 08:51:53;;;;;;;10.67;7.00;;;9.30;1.00;;;;;;6051287;23;20433;-83
2023/02/13 08:54:26;;;;;;;10.80;6.93;;;9.40;1.00;;;;;;6049479;23;20394;-80
2023/02/13 08:57:00;;;;;;;12.50;8.33;;;9.40;1.00;;;;;;6034288;23;20217;-81
2023/02/13 08:59:41;;;;;;;13.57;7.03;;;9.40;1.00;;;;;;6046078;23;20410;-81
2023/02/13 09:02:14;;;;;;;10.67;7.03;;;9.40;1.00;;;;;;6027413;23;20407;-83
2023/02/13 09:04:44;;;;;;;11.50;8.20;;;9.40;1.00;;;;;;6032428;23;20415;-82
2023/02/13 09:07:24;;;;;;;9.27;6.80;;;9.40;1.00;;;;;;6026378;23;20390;-81
2023/02/13 09:09:52;;;;;;;11.90;7.70;;;9.40;1.00;;;;;;6046282;23;20382;-81
2023/02/13 09:12:42;;;;;;;11.93;6.90;;;9.40;1.00;;;;;;6036509;23;20494;-77
2023/02/13 09:15:12;;;;;;;11.57;7.20;;;9.40;1.00;;;;;;6032686;23;20505;-77
2023/02/13 09:17:42;;;;;;;11.07;7.27;;;9.40;1.00;;;;;;6037491;23;20507;-84
2023/02/13 09:20:32;;;;;;;12.37;7.43;;;9.40;1.00;;;;;;6036197;23;20461;-80
2023/02/13 09:23:03;;;;;;;16.70;9.63;;;9.30;1.00;;;;;;6039534;23;20442;-79
2023/02/13 09:25:32;;;;;;;11.13;7.50;;;9.30;1.00;;;;;;6038136;23;20501;-81
2023/02/13 09:28:12;;;;;;;11.93;8.67;;;9.30;1.00;;;;;;6025981;23;21892;-79
2023/02/13 09:30:42;;;;;;;13.53;8.40;;;9.40;1.00;;;;;;6038051;23;20442;-79
2023/02/13 09:33:14;;;;;;;13.02;8.55;;;9.40;1.00;;;;;;6036102;23;20885;-79
2023/02/13 09:35:41;;;;;;;14.50;8.40;;;9.40;1.00;;;;;;6037850;23;20224;-79
2023/02/13 09:38:24;;;;;;;13.47;8.80;;;9.40;1.00;;;;;;6036802;23;20486;-81
2023/02/13 09:41:21;;;;;;;12.33;7.90;;;9.30;1.00;;;;;;6047509;23;20813;-82
2023/02/13 09:44:02;;;;;;;13.00;8.53;;;9.30;1.00;;;;;;6049961;23;20386;-82
2023/02/13 09:46:35;;;;;;;12.97;8.70;;;9.30;1.00;;;;;;6052641;23;20381;-82
2023/02/13 09:49:12;;;;;;;11.23;6.60;;;9.30;1.00;;;;;;6050631;23;20395;-81
2023/02/13 09:52:03;;;;;;;13.60;8.23;;;9.20;1.00;;;;;;6054837;23;20451;-82
2023/02/13 09:54:34;;;;;;;11.50;8.57;;;9.00;1.00;;;;;;6040453;23;20406;-82
2023/02/13 09:57:11;;;;;;;12.50;8.63;;;8.90;1.00;;;;;;6052295;23;20425;-82
2023/02/13 10:00:10;;;;;;;;;;;;;;;;;;;;;
2023/02/13 10:03:11;;;;;;;;;;;;;;;;;;;;;
2023/02/13 10:05:51;;;;;;;16.73;10.77;;;8.60;1.00;;;;;;6050372;23;49046;-81
2023/02/13 10:08:51;;;;;;;14.63;11.00;;;8.60;1.00;;;;;;6038159;23;21193;-82
2023/02/13 10:11:51;;;;;;;14.70;10.70;;;8.60;1.00;;;;;;6050576;23;20488;-82
2023/02/13 10:14:41;;;;;;;15.52;11.18;;;8.60;1.00;;;;;;6053514;23;20411;-81
2023/02/13 10:17:41;;;;;;;13.57;11.05;;;8.50;1.00;;;;;;6032267;23;20228;-81
2023/02/13 10:20:32;;;;;;;13.90;11.18;;;8.40;1.00;;;;;;6050367;23;20363;-81
2023/02/13 10:23:31;;;;;;;15.20;11.77;;;8.40;1.00;;;;;;6050781;23;20204;-84
2023/02/13 10:26:11;;;;;;;16.52;11.75;;;8.40;1.00;;;;;;6056991;23;20230;-85
2023/02/13 10:32:12;;;;;;;18.47;11.83;;;8.50;1.00;;;;;;6046594;23;20391;-81
2023/02/13 10:34:45;;;;;;;15.60;12.47;;;8.50;1.00;;;;;;6051000;23;20434;-79
2023/02/13 10:37:22;;;;;;;17.00;12.40;;;8.60;1.00;;;;;;6046317;23;20392;-83
2023/02/13 10:39:53;;;;;;;24.63;18.23;;;8.50;1.00;;;;;;6047921;23;20407;-78
2023/02/13 10:42:34;;;;;;;20.48;12.20;;;8.50;1.00;;;;;;6049768;23;20406;-79
2023/02/13 10:45:32;;;;;;;14.98;11.35;;;8.50;1.00;;;;;;6047726;23;20220;-80
2023/02/13 10:48:15;;;;;;;14.87;12.20;;;8.50;1.00;;;;;;6048518;23;20326;-81
2023/02/13 10:51:01;;;;;;;19.00;11.93;;;8.60;1.00;;;;;;6046534;23;20439;-83
2023/02/13 10:53:51;;;;;;;14.63;12.35;;;8.60;1.00;;;;;;6048067;23;20367;-82
2023/02/13 10:56:31;;;;;;;17.45;12.90;;;8.50;1.00;;;;;;6051977;23;20248;-82
2023/02/13 10:59:11;;;;;;;15.50;10.85;;;8.60;1.00;;;;;;6050061;23;20208;-80
2023/02/13 11:02:11;;;;;;;15.87;11.80;;;8.60;1.00;;;;;;6047648;23;20228;-77
2023/02/13 11:04:44;;;;;;;13.18;10.85;;;8.60;1.00;;;;;;6047963;23;20506;-79
2023/02/13 11:07:21;;;;;;;14.10;10.40;;;8.60;1.00;;;;;;6049775;23;20218;-80
2023/02/13 11:10:01;;;;;;;14.73;9.83;;;8.70;1.00;;;;;;6049742;23;20419;-84
2023/02/13 11:12:35;;;;;;;21.00;11.50;;;8.80;1.00;;;;;;6055205;23;20589;-85
2023/02/13 11:15:05;;;;;;;16.00;11.37;;;8.80;1.00;;;;;;6052992;23;20394;-84
2023/02/13 11:17:45;;;;;;;17.70;11.90;;;8.90;1.00;;;;;;6049030;23;20395;-83
2023/02/13 11:20:31;;;;;;;18.07;13.53;;;9.00;1.00;;;;;;6036141;23;20391;-82
2023/02/13 11:23:35;;;;;;;14.57;10.77;;;9.10;1.00;;;;;;6046084;23;20499;-82
2023/02/13 11:26:17;;;;;;;14.85;10.63;;;9.00;1.00;;;;;;6052366;23;20436;-84
2023/02/13 11:29:22;;;;;;;16.50;11.73;;;8.90;1.00;;;;;;6044329;23;20967;-82
2023/02/13 11:32:21;;;;;;;17.53;11.40;;;9.00;1.00;;;;;;6047025;23;20399;-81
2023/02/13 11:35:22;;;;;;;17.30;12.30;;;9.00;1.00;;;;;;6044247;23;20518;-80
2023/02/13 11:38:22;;;;;;;14.40;10.80;;;9.10;1.00;;;;;;6047361;23;21401;-82
2023/02/13 11:41:13;;;;;;;17.93;11.50;;;9.30;1.00;;;;;;6046801;23;20440;-82
2023/02/13 11:43:50;;;;;;;20.40;13.23;;;9.40;1.00;;;;;;6050858;23;20450;-82
2023/02/13 11:46:24;;;;;;;15.70;11.23;;;9.40;1.00;;;;;;6050515;23;20473;-82
2023/02/13 11:49:13;;;;;;;15.83;12.60;;;9.50;1.00;;;;;;6046978;23;20399;-79
2023/02/13 11:51:45;;;;;;;16.73;12.30;;;9.50;1.00;;;;;;6051877;23;20421;-84
2023/02/13 11:54:25;;;;;;;16.03;12.60;;;9.50;1.00;;;;;;6049735;23;20494;-78
2023/02/13 11:56:54;;;;;;;20.83;13.60;;;9.60;1.00;;;;;;6041747;23;20441;-85
2023/02/13 11:59:23;;;;;;;17.77;12.47;;;9.60;1.00;;;;;;6054244;23;20379;-83
2023/02/13 12:02:13;;;;;;;19.87;13.00;;;9.60;1.00;;;;;;6032747;23;20395;-82
2023/02/13 12:04:43;;;;;;;17.57;12.13;;;9.70;1.00;;;;;;6052516;23;20434;-83
2023/02/13 12:07:22;;;;;;;15.70;11.80;;;9.70;1.00;;;;;;6050732;23;20415;-83
2023/02/13 12:10:02;;;;;;;18.00;13.40;;;9.80;1.00;;;;;;6011640;23;20419;-86
2023/02/13 12:12:53;;;;;;;17.90;13.80;;;9.80;1.00;;;;;;6051024;23;20543;-82
2023/02/13 12:15:34;;;;;;;16.87;12.67;;;9.90;1.00;;;;;;6045162;23;20407;-84
2023/02/13 12:18:21;;;;;;;18.10;13.73;;;9.90;1.00;;;;;;6053189;23;20402;-86
2023/02/13 12:21:04;;;;;;;21.07;13.97;;;9.90;1.00;;;;;;6039879;23;20434;-82
2023/02/13 12:26:35;;;;;;;22.33;14.70;;;9.80;1.00;;;;;;6027760;23;20439;-83
2023/02/13 12:29:31;;;;;;;21.37;14.80;;;9.70;1.00;;;;;;6048843;23;20414;-82
2023/02/13 12:32:34;;;;;;;;;;;;;;;;;;;;;
2023/02/13 12:35:52;;;;;;;18.80;13.20;;;9.90;1.00;;;;;;6032370;23;39999;-82
2023/02/13 12:39:03;;;;;;;;;;;;;;;;;;;;;
2023/02/13 12:41:54;;;;;;;23.40;14.67;;;9.80;1.00;;;;;;6043752;23;50102;-83
2023/02/13 12:45:02;;;;;;;20.57;14.17;;;9.80;1.00;;;;;;6050725;23;20423;-80
2023/02/13 12:47:42;;;;;;;19.03;14.60;;;9.80;1.00;;;;;;6019269;23;20395;-85
2023/02/13 12:54:02;;;;;;;17.43;12.60;;;9.80;1.00;;;;;;6034991;23;20454;-81
2023/02/13 12:57:01;;;;;;;17.87;12.33;;;9.80;1.00;;;;;;6050984;23;20442;-85
2023/02/13 13:00:02;;;;;;;17.90;13.20;;;9.80;1.00;;;;;;6050571;23;20414;-85
2023/02/13 13:03:03;;;;;;;17.60;13.10;;;9.70;1.00;;;;;;6050088;23;20453;-83
2023/02/13 13:06:03;;;;;;;17.13;13.00;;;9.70;1.00;;;;;;6032948;23;20430;-84
2023/02/13 13:09:04;;;;;;;18.60;13.50;;;9.70;1.00;;;;;;6053734;23;20426;-83
2023/02/13 13:12:13;;;;;;;20.05;14.05;;;9.60;1.00;;;;;;6050995;23;20387;-83
2023/02/13 13:14:53;;;;;;;18.93;13.37;;;9.60;1.00;;;;;;6034990;23;20213;-80
2023/02/13 13:17:43;;;;;;;19.30;13.63;;;9.50;1.00;;;;;;6050397;23;20445;-79
2023/02/13 13:20:56;;;;;;;19.70;13.47;;;9.40;1.00;;;;;;6048423;23;20535;-79
2023/02/13 13:23:43;;;;;;;17.57;12.60;;;9.50;1.00;;;;;;6050774;23;20431;-83
2023/02/13 13:26:23;;;;;;;18.90;12.97;;;9.50;1.00;;;;;;6051071;23;20509;-81
2023/02/13 13:29:06;;;;;;;18.07;12.77;;;9.60;1.00;;;;;;6050945;23;20405;-83
2023/02/13 13:31:36;;;;;;;21.90;13.70;;;9.60;1.00;;;;;;6052938;23;20407;-84
2023/02/13 13:34:12;;;;;;;19.00;12.93;;;9.60;1.00;;;;;;6054035;23;20399;-84
2023/02/13 13:37:05;;;;;;;18.37;13.70;;;9.60;1.00;;;;;;6052871;23;20390;-82
2023/02/13 13:39:56;;;;;;;;;;;;;;;;;;;;;
2023/02/13 13:43:04;;;;;;;16.10;12.60;;;9.50;1.00;;;;;;6049716;23;49350;-86
2023/02/13 13:45:46;;;;;;;22.00;15.13;;;9.60;1.00;;;;;;6039023;23;20540;-85
2023/02/13 13:52:53;;;;;;;24.60;14.10;;;9.50;1.00;;;;;;6019810;23;20393;-87
2023/02/13 13:55:57;;;;;;;19.70;13.73;;;9.40;1.00;;;;;;5938241;23;20431;-86
2023/02/13 13:58:56;;;;;;;19.87;15.00;;;9.40;1.00;;;;;;5900941;23;20475;-83
2023/02/13 14:01:45;;;;;;;20.97;14.53;;;9.30;1.00;;;;;;5935902;23;20369;-83
2023/02/13 14:04:53;;;;;;;22.07;14.67;;;9.30;1.00;;;;;;5903659;23;20406;-84
2023/02/13 14:52:50;;;;;;;19.60;14.10;;;9.20;1.00;;;;;;6292156;22;1339984;-83
2023/02/13 15:03:59;;;;;;;22.53;14.00;;;9.00;1.00;;;;;;6152880;23;20413;-82
2023/02/13 15:14:00;;;;;;;23.43;14.43;;;9.00;1.00;;;;;;6154766;23;20399;-84
2023/02/13 16:21:19;;;;;;;23.50;15.87;;;8.70;1.00;;;;;;6242588;22;20420;-85
2023/02/13 16:23:52;;;;;;;25.43;15.77;;;8.70;1.00;;;;;;6249461;22;21116;-81
2023/02/13 16:26:20;;;;;;;23.80;14.50;;;8.60;1.00;;;;;;6225525;22;20401;-81
2023/02/13 16:29:01;;;;;;;21.10;13.97;;;8.60;1.00;;;;;;6231588;22;20396;-80
2023/02/13 16:34:32;;;;;;;25.10;15.00;;;8.50;1.00;;;;;;6202078;22;20409;-85
2023/02/13 16:37:11;;;;;;;27.00;18.05;;;8.50;1.00;;;;;;6215561;23;20201;-86
2023/02/13 16:39:51;;;;;;;20.00;13.93;;;8.50;1.00;;;;;;6179029;23;20217;-85
2023/02/13 16:43:01;;;;;;;21.40;14.87;;;8.40;1.00;;;;;;6191586;23;20218;-86
2023/02/13 16:45:40;;;;;;;23.83;15.10;;;8.40;1.00;;;;;;6180130;22;20526;-87
2023/02/13 16:48:38;;;;;;;20.30;14.97;;;8.40;1.00;;;;;;6198465;22;21224;-87
2023/02/13 16:55:01;;;;;;;22.40;13.70;;;8.50;1.00;;;;;;6085586;23;20406;-85
2023/02/13 16:57:40;;;;;;;24.70;19.20;;;8.50;1.00;;;;;;6073343;23;20447;-84
2023/02/13 17:00:31;;;;;;;21.37;14.47;;;8.50;1.00;;;;;;6098128;23;20222;-82
2023/02/13 17:05:52;;;;;;;22.10;14.43;;;8.60;1.00;;;;;;6148229;23;20449;-81
2023/02/13 17:18:51;;;;;;;25.38;14.38;;;8.40;1.00;;;;;;5956989;23;20370;-84
2023/02/13 17:21:32;;;;;;;;;;;;;;;;;;;;;
2023/02/13 17:24:01;;;;;;;25.23;15.50;;;8.40;1.00;;;;;;6037387;23;39588;-85
2023/02/13 17:26:48;;;;;;;26.97;14.87;;;8.40;1.00;;;;;;6120469;23;20405;-85
2023/02/13 17:29:29;;;;;;;21.02;15.10;;;8.40;1.00;;;;;;6122689;23;20416;-85
2023/02/13 17:32:32;;;;;;;25.03;14.70;;;8.40;1.00;;;;;;6112424;23;20221;-85
2023/02/13 17:35:20;;;;;;;23.40;14.70;;;8.40;1.00;;;;;;6112654;23;20455;-83
2023/02/13 17:37:50;;;;;;;18.58;14.15;;;8.40;1.00;;;;;;6198570;23;20387;-83
2023/02/13 17:40:39;;;;;;;20.23;14.77;;;8.40;1.00;;;;;;6167431;23;20198;-84
2023/02/13 17:43:18;;;;;;;21.75;14.90;;;8.40;1.00;;;;;;6180712;23;20528;-83
2023/02/13 17:45:52;;;;;;;23.23;15.57;;;8.40;1.00;;;;;;6212853;23;20316;-81
2023/02/13 17:48:20;;;;;;;22.90;14.37;;;8.40;1.00;;;;;;6191451;23;20869;-85
2023/02/13 17:50:52;;;;;;;25.67;16.60;;;8.40;1.00;;;;;;6187120;23;20492;-86
2023/02/13 17:53:29;;;;;;;22.50;15.93;;;8.40;1.00;;;;;;6205679;23;20259;-84
2023/02/13 17:56:11;;;;;;;23.53;16.10;;;8.40;1.00;;;;;;6187574;23;20417;-84
2023/02/13 17:58:41;;;;;;;23.63;15.23;;;8.40;1.00;;;;;;6166912;23;20409;-81
2023/02/13 18:01:12;;;;;;;19.70;15.37;;;8.40;1.00;;;;;;6163349;23;20205;-84
2023/02/13 18:03:51;;;;;;;22.65;15.43;;;8.40;1.00;;;;;;6175744;23;20401;-84
2023/02/13 18:06:29;;;;;;;26.88;16.52;;;8.40;1.00;;;;;;6200789;23;20280;-86
2023/02/13 18:09:02;;;;;;;19.48;15.63;;;8.30;1.00;;;;;;6175241;23;20201;-84
2023/02/13 18:11:30;;;;;;;25.92;17.65;;;8.30;1.00;;;;;;6199989;23;20200;-86
2023/02/13 18:14:21;;;;;;;26.00;17.27;;;8.30;1.00;;;;;;6169420;23;20223;-84
2023/02/13 18:16:51;;;;;;;28.00;17.87;;;8.30;1.00;;;;;;6013324;23;20490;-81
2023/02/13 18:19:30;;;;;;;24.92;17.30;;;8.30;1.00;;;;;;5994984;23;20401;-83
2023/02/13 18:22:22;;;;;;;26.05;16.60;;;8.30;1.00;;;;;;6168291;23;20269;-82
2023/02/13 18:24:52;;;;;;;27.27;17.70;;;8.40;1.00;;;;;;6192629;23;20220;-83
2023/02/13 18:31:33;;;;;;;;;;;;;;;;;;;;;
2023/02/13 18:34:01;;;;;;;23.23;15.80;;;8.40;1.00;;;;;;6104723;23;39704;-85
2023/02/13 18:36:40;;;;;;;22.23;16.00;;;8.40;1.00;;;;;;6131861;23;20407;-84
2023/02/13 18:39:40;;;;;;;25.15;16.40;;;8.40;1.00;;;;;;6090781;23;20405;-85
2023/02/13 18:42:18;;;;;;;24.20;16.87;;;8.40;1.00;;;;;;6005628;23;20231;-83
2023/02/13 18:44:51;;;;;;;33.17;17.33;;;8.30;1.00;;;;;;6092252;23;20501;-83
2023/02/13 18:47:22;;;;;;;23.73;16.40;;;8.30;1.00;;;;;;6101972;23;20271;-84
2023/02/13 18:49:50;;;;;;;26.35;15.98;;;8.20;1.00;;;;;;6096173;23;20400;-83
2023/02/13 18:52:20;;;;;;;27.17;16.57;;;8.20;1.00;;;;;;6119393;23;20208;-79
2023/02/13 18:54:51;;;;;;;25.43;16.13;;;8.20;1.00;;;;;;6154015;23;20404;-82
2023/02/13 18:57:21;;;;;;;30.75;19.10;;;8.20;1.00;;;;;;6194333;23;20416;-84
2023/02/13 18:59:58;;;;;;;23.35;16.75;;;8.10;1.00;;;;;;6199680;22;20245;-83
2023/02/13 19:02:31;;;;;;;25.48;16.77;;;8.10;1.00;;;;;;6194634;23;20256;-83
2023/02/13 19:05:01;;;;;;;21.50;16.10;;;8.00;1.00;;;;;;6160611;22;20195;-82